createdAt,value
2016-11-23T00:01:09.876Z,42.9
2016-11-23T00:06:13.971Z,42.9
2016-11-23T00:11:18.063Z,42.8
2016-11-23T00:16:22.822Z,42.8
2016-11-23T00:21:26.916Z,42.9
2016-11-23T00:26:31.678Z,42.8
2016-11-23T00:31:36.104Z,42.8
2016-11-23T00:36:40.525Z,42.8
2016-11-23T00:41:44.619Z,42.8
2016-11-23T00:46:49.045Z,42.8
2016-11-23T00:51:53.492Z,42.8
2016-11-23T00:56:57.585Z,42.8
2016-11-23T01:02:02.008Z,42.8
2016-11-23T01:07:06.096Z,42.8
2016-11-23T01:12:10.182Z,42.8
2016-11-23T01:17:14.601Z,42.8
2016-11-23T01:22:18.689Z,42.8
2016-11-23T01:27:22.778Z,42.8
2016-11-23T01:32:27.205Z,42.8
2016-11-23T01:37:31.960Z,42.8
2016-11-23T01:42:36.053Z,42.9
2016-11-23T01:47:40.140Z,42.9
2016-11-23T01:52:44.573Z,42.9
2016-11-23T01:57:49.002Z,42.9
2016-11-23T02:02:53.436Z,42.9
2016-11-23T02:07:57.866Z,42.9
2016-11-23T02:13:02.302Z,42.9
2016-11-23T02:18:06.730Z,42.9
2016-11-23T02:23:11.153Z,42.9
2016-11-23T02:28:15.579Z,42.9
2016-11-23T02:33:19.677Z,42.9
2016-11-23T02:38:24.100Z,42.9
2016-11-23T02:43:28.184Z,42.9
2016-11-23T02:48:32.270Z,42.9
2016-11-23T02:53:36.364Z,42.9
2016-11-23T02:58:40.793Z,42.9
2016-11-23T03:03:44.878Z,42.9
2016-11-23T03:08:48.967Z,42.9
2016-11-23T03:13:53.387Z,43
2016-11-23T03:18:57.475Z,43
2016-11-23T03:24:01.896Z,43
2016-11-23T03:29:05.987Z,43
2016-11-23T03:34:10.080Z,43
2016-11-23T03:39:14.172Z,42.9
2016-11-23T03:44:18.261Z,42.9
2016-11-23T03:49:22.346Z,43
2016-11-23T03:54:26.438Z,42.9
2016-11-23T03:59:31.193Z,42.9
2016-11-23T04:04:36.294Z,42.9
2016-11-23T04:09:40.373Z,42.9
2016-11-23T04:14:45.142Z,42.9
2016-11-23T04:19:49.235Z,42.9
2016-11-23T04:24:53.324Z,42.9
2016-11-23T04:29:57.751Z,42.9
2016-11-23T04:35:01.840Z,42.9
2016-11-23T04:40:06.600Z,42.9
2016-11-23T04:45:11.702Z,42.9
2016-11-23T04:50:15.794Z,43
2016-11-23T04:55:19.885Z,42.9
2016-11-23T05:00:24.646Z,42.9
2016-11-23T05:05:28.746Z,42.9
2016-11-23T05:10:32.836Z,42.8
2016-11-23T05:15:37.268Z,42.9
2016-11-23T05:20:41.362Z,42.9
2016-11-23T05:25:45.448Z,42.9
2016-11-23T05:30:49.881Z,43
2016-11-23T05:35:54.329Z,42.9
2016-11-23T05:40:58.429Z,43
2016-11-23T05:46:02.523Z,43
2016-11-23T05:51:06.615Z,43.1
2016-11-23T05:56:11.044Z,43.5
2016-11-23T06:01:15.468Z,44.1
2016-11-23T06:06:19.897Z,44.8
2016-11-23T06:11:23.993Z,45.2
2016-11-23T06:16:28.435Z,45.6
2016-11-23T06:21:32.530Z,45.4
2016-11-23T06:26:36.652Z,45.6
2016-11-23T06:31:41.071Z,45.7
2016-11-23T06:36:45.494Z,45.6
2016-11-23T06:41:49.609Z,45.4
2016-11-23T06:46:53.683Z,45.3
2016-11-23T06:51:57.776Z,45.3
2016-11-23T06:57:01.865Z,45.1
2016-11-23T07:02:05.955Z,44.9
2016-11-23T07:07:10.049Z,44.8
2016-11-23T07:12:14.141Z,44.7
2016-11-23T07:17:18.233Z,44.6
2016-11-23T07:22:22.657Z,44.6
2016-11-23T07:27:26.750Z,44.6
2016-11-23T07:32:31.172Z,44.5
2016-11-23T07:37:35.262Z,44.5
2016-11-23T07:42:40.020Z,44.4
2016-11-23T07:47:44.112Z,44.3
2016-11-23T07:52:48.537Z,44.3
2016-11-23T07:57:52.966Z,44.3
2016-11-23T08:02:57.399Z,44.2
2016-11-23T08:08:01.832Z,44.2
2016-11-23T08:13:05.919Z,44.2
2016-11-23T08:18:10.018Z,44.2
2016-11-23T08:23:14.446Z,44.1
2016-11-23T08:28:18.540Z,44.1
2016-11-23T08:33:22.630Z,44.1
2016-11-23T08:38:26.724Z,44.1
2016-11-23T08:43:31.159Z,44
2016-11-23T08:48:35.597Z,44
2016-11-23T08:53:39.688Z,44
2016-11-23T08:58:44.121Z,44
2016-11-23T09:03:48.224Z,44
2016-11-23T09:08:52.979Z,44
2016-11-23T09:13:57.417Z,43.8
2016-11-23T09:19:01.525Z,43.8
2016-11-23T09:24:05.620Z,43.8
2016-11-23T09:29:10.160Z,43.8
2016-11-23T09:34:14.930Z,43.8
2016-11-23T09:39:19.085Z,43.8
2016-11-23T09:44:23.188Z,43.9
2016-11-23T09:49:27.618Z,43.9
2016-11-23T09:54:32.229Z,43.9
2016-11-23T09:59:36.677Z,43.8
2016-11-23T10:04:40.803Z,43.8
2016-11-23T10:09:44.910Z,44
2016-11-23T10:14:49.218Z,43.9
2016-11-23T10:19:53.344Z,43.8
2016-11-23T10:24:58.164Z,43.9
2016-11-23T10:30:02.263Z,43.9
2016-11-23T10:35:06.700Z,43.9
2016-11-23T10:40:10.800Z,43.9
2016-11-23T10:45:15.231Z,44
2016-11-23T10:50:19.332Z,44
2016-11-23T10:55:23.767Z,44
2016-11-23T11:00:27.865Z,44
2016-11-23T11:05:31.963Z,44
2016-11-23T11:10:36.735Z,44
2016-11-23T11:15:40.830Z,44
2016-11-23T11:20:44.929Z,44
2016-11-23T11:25:49.025Z,44
2016-11-23T11:30:53.892Z,44
2016-11-23T11:35:57.985Z,44
2016-11-23T11:41:02.079Z,44
2016-11-23T11:46:06.173Z,44
2016-11-23T11:51:10.935Z,44
2016-11-23T11:56:18.490Z,44
2016-11-23T12:01:22.584Z,44
2016-11-23T12:06:26.681Z,44
2016-11-23T12:11:31.457Z,44
2016-11-23T12:16:35.894Z,43.9
2016-11-23T12:21:40.330Z,43.8
2016-11-23T12:26:44.792Z,43.7
2016-11-23T12:31:48.896Z,43.5
2016-11-23T12:36:53.326Z,43.6
2016-11-23T12:41:57.425Z,43.6
2016-11-23T12:47:02.207Z,43.6
2016-11-23T12:52:06.315Z,43.7
2016-11-23T12:57:10.414Z,43.5
2016-11-23T13:02:14.506Z,43.4
2016-11-23T13:07:18.937Z,43.3
2016-11-23T13:12:23.073Z,43.2
2016-11-23T13:17:27.165Z,43.3
2016-11-23T13:22:31.830Z,43.1
2016-11-23T13:27:35.932Z,42.9
2016-11-23T13:32:40.062Z,42.7
2016-11-23T13:37:44.160Z,42.5
2016-11-23T13:42:48.251Z,42.3
2016-11-23T13:47:52.349Z,42.2
2016-11-23T13:52:56.782Z,42.1
2016-11-23T13:58:00.876Z,41.9
2016-11-23T14:03:04.972Z,41.7
2016-11-23T14:08:09.071Z,41.7
2016-11-23T14:13:13.521Z,41.8
2016-11-23T14:18:17.967Z,42.4
2016-11-23T14:23:22.071Z,43.3
2016-11-23T14:28:26.516Z,43.5
2016-11-23T14:33:30.688Z,43.6
2016-11-23T14:38:35.144Z,43.4
2016-11-23T14:43:39.242Z,43.4
2016-11-23T14:48:43.669Z,43.6
2016-11-23T14:53:48.103Z,43.6
2016-11-23T14:58:52.671Z,43.6
2016-11-23T15:03:57.120Z,43.6
2016-11-23T15:09:01.558Z,43.5
2016-11-23T15:14:06.323Z,43.5
2016-11-23T15:19:10.714Z,43.5
2016-11-23T15:24:14.834Z,43.4
2016-11-23T15:29:18.953Z,43.4
2016-11-23T15:34:23.709Z,43.4
2016-11-23T15:39:43.069Z,43.3
2016-11-23T15:44:47.168Z,43.2
2016-11-23T15:49:51.270Z,43.2
2016-11-23T15:54:55.372Z,43.1
2016-11-23T15:59:59.986Z,43
2016-11-23T16:05:04.076Z,42.6
2016-11-23T16:10:08.859Z,42.4
2016-11-23T16:15:12.971Z,42.4
2016-11-23T16:20:17.409Z,42.5
2016-11-23T16:25:21.845Z,42.6
2016-11-23T16:30:25.943Z,42.6
2016-11-23T16:35:30.371Z,42.6
2016-11-23T16:40:34.889Z,42.5
2016-11-23T16:45:39.012Z,42.5
2016-11-23T16:50:43.441Z,42.5
2016-11-23T16:55:47.544Z,42.5
2016-11-23T17:00:51.970Z,42.4
2016-11-23T17:05:56.066Z,42.4
2016-11-23T17:11:00.183Z,42.4
2016-11-23T17:16:04.479Z,42.4
2016-11-23T17:21:08.931Z,43
2016-11-23T17:26:13.036Z,43.2
2016-11-23T17:31:17.145Z,43.3
2016-11-23T17:36:21.260Z,43.2
2016-11-23T17:41:25.684Z,43.1
2016-11-23T17:46:29.774Z,42.9
2016-11-23T17:51:33.863Z,42.8
2016-11-23T17:56:38.299Z,42.7
2016-11-23T18:01:42.395Z,42.7
2016-11-23T18:06:46.823Z,42.6
2016-11-23T18:11:51.255Z,42.6
2016-11-23T18:16:55.708Z,42.5
2016-11-23T18:21:59.807Z,42.4
2016-11-23T18:27:04.568Z,42.5
2016-11-23T18:32:08.683Z,42.5
2016-11-23T18:37:13.104Z,42.4
2016-11-23T18:42:17.196Z,42.4
2016-11-23T18:47:21.623Z,42.4
2016-11-23T18:52:27.057Z,42.4
2016-11-23T18:57:31.151Z,42.4
2016-11-23T19:02:35.243Z,42.6
2016-11-23T19:07:39.336Z,42.9
2016-11-23T19:12:43.772Z,42.8
2016-11-23T19:17:47.866Z,42.7
2016-11-23T19:22:52.296Z,42.6
2016-11-23T19:27:56.387Z,42.3
2016-11-23T19:33:00.484Z,42.2
2016-11-23T19:38:04.577Z,42.2
2016-11-23T19:43:08.666Z,42.2
2016-11-23T19:48:12.759Z,42.4
2016-11-23T19:53:17.189Z,42.5
2016-11-23T19:58:21.285Z,42.1
2016-11-23T20:03:26.047Z,42
2016-11-23T20:08:31.052Z,41.9
2016-11-23T20:13:35.148Z,41.8
2016-11-23T20:18:39.579Z,41.8
2016-11-23T20:23:43.684Z,41.8
2016-11-23T20:28:47.775Z,41.9
2016-11-23T20:33:52.202Z,42.1
2016-11-23T20:38:56.298Z,42.7
2016-11-23T20:44:00.387Z,42.9
2016-11-23T20:49:05.182Z,42.8
2016-11-23T20:54:09.811Z,42.6
2016-11-23T20:59:13.917Z,42.3
2016-11-23T21:04:19.076Z,42.1
2016-11-23T21:09:23.186Z,41.9
2016-11-23T21:14:27.361Z,41.8
2016-11-23T21:19:31.798Z,40.6
2016-11-23T21:24:36.233Z,41.2
2016-11-23T21:29:40.999Z,41.6
2016-11-23T21:34:45.093Z,41.6
2016-11-23T21:39:49.403Z,41.7
2016-11-23T21:44:53.525Z,41.7
2016-11-23T21:49:57.821Z,41.7
2016-11-23T21:55:02.260Z,41.7
2016-11-23T22:00:07.035Z,41.7
2016-11-23T22:05:11.463Z,41.7
2016-11-23T22:10:15.558Z,41.6
2016-11-23T22:15:19.687Z,41.6
2016-11-23T22:20:23.775Z,41.5
2016-11-23T22:25:28.200Z,41.5
2016-11-23T22:30:32.623Z,41.4
2016-11-23T22:35:37.064Z,41.4
2016-11-23T22:40:41.142Z,41.3
2016-11-23T22:45:45.248Z,41.3
2016-11-23T22:50:49.678Z,41.2
2016-11-23T22:55:53.773Z,41.2
2016-11-23T23:00:57.866Z,41.2
2016-11-23T23:06:01.953Z,41.1
2016-11-23T23:11:06.051Z,41.1
2016-11-23T23:16:10.142Z,41.1
2016-11-23T23:21:14.246Z,41.1
2016-11-23T23:26:18.335Z,41.1
2016-11-23T23:31:23.095Z,41
2016-11-23T23:36:27.527Z,41.1
2016-11-23T23:41:31.632Z,40.9
2016-11-23T23:46:35.730Z,40.8
2016-11-23T23:51:39.814Z,40.8
2016-11-23T23:56:43.915Z,40.7
